createdAt,value
2022-12-31T00:01:36.659Z,85.00
2022-12-31T00:04:57.967Z,84.79
2022-12-31T00:08:19.674Z,84.72
2022-12-31T00:11:41.529Z,84.82
2022-12-31T00:15:04.396Z,84.87
2022-12-31T00:18:26.962Z,84.90
2022-12-31T00:21:48.822Z,84.89
2022-12-31T00:25:11.247Z,84.78
2022-12-31T00:28:33.277Z,84.61
2022-12-31T00:31:56.124Z,84.73
2022-12-31T00:35:18.047Z,84.59
2022-12-31T00:38:40.419Z,84.57
2022-12-31T00:42:02.649Z,84.60
2022-12-31T00:45:24.142Z,84.45
2022-12-31T00:48:47.528Z,84.54
2022-12-31T00:52:09.201Z,84.05
2022-12-31T00:55:31.927Z,84.16
2022-12-31T00:58:53.732Z,83.97
2022-12-31T01:02:15.543Z,83.71
2022-12-31T01:05:39.561Z,83.54
2022-12-31T01:09:01.087Z,83.62
2022-12-31T01:12:23.033Z,83.50
2022-12-31T01:15:44.753Z,83.60
2022-12-31T01:19:09.310Z,83.42
2022-12-31T01:22:32.240Z,83.29
2022-12-31T01:25:54.043Z,83.13
2022-12-31T01:29:16.996Z,83.36
2022-12-31T01:32:38.667Z,83.12
2022-12-31T01:36:03.473Z,82.95
2022-12-31T01:39:26.292Z,82.36
2022-12-31T01:42:55.166Z,82.42
2022-12-31T01:46:28.197Z,82.85
2022-12-31T01:49:53.476Z,82.43
2022-12-31T01:53:17.544Z,81.77
2022-12-31T01:56:44.229Z,82.13
2022-12-31T02:00:07.802Z,81.80
2022-12-31T02:03:30.785Z,81.56
2022-12-31T02:06:57.268Z,81.52
2022-12-31T02:10:19.106Z,81.81
2022-12-31T02:13:42.122Z,81.44
2022-12-31T02:17:11.390Z,81.37
2022-12-31T02:21:19.457Z,81.56
2022-12-31T02:25:15.457Z,81.20
2022-12-31T02:29:06.389Z,81.31
2022-12-31T02:32:38.205Z,81.75
2022-12-31T02:36:04.040Z,81.80
2022-12-31T02:39:25.913Z,81.37
2022-12-31T02:42:53.295Z,81.27
2022-12-31T02:46:28.003Z,81.80
2022-12-31T02:50:02.218Z,81.52
2022-12-31T02:53:42.986Z,81.32
2022-12-31T02:57:12.810Z,81.74
2022-12-31T03:00:59.627Z,81.37
2022-12-31T03:04:36.272Z,81.96
2022-12-31T03:07:59.215Z,81.76
2022-12-31T03:11:34.766Z,81.99
2022-12-31T03:14:56.365Z,81.34
2022-12-31T03:18:39.911Z,81.44
2022-12-31T03:22:18.773Z,82.04
2022-12-31T03:25:41.788Z,81.11
2022-12-31T03:29:04.263Z,81.77
2022-12-31T03:32:25.541Z,81.50
2022-12-31T03:35:48.856Z,81.58
2022-12-31T03:39:10.739Z,81.85
2022-12-31T03:42:33.932Z,81.50
2022-12-31T03:45:58.667Z,81.82
2022-12-31T03:49:21.164Z,81.08
2022-12-31T03:52:42.942Z,81.78
2022-12-31T03:56:05.000Z,81.77
2022-12-31T03:59:27.779Z,81.33
2022-12-31T04:02:50.050Z,82.23
2022-12-31T04:06:11.559Z,82.47
2022-12-31T04:09:33.356Z,82.60
2022-12-31T04:12:54.832Z,82.40
2022-12-31T04:16:17.537Z,83.06
2022-12-31T04:19:39.178Z,82.95
2022-12-31T04:23:00.459Z,82.94
2022-12-31T04:26:22.223Z,83.31
2022-12-31T04:29:43.546Z,82.88
2022-12-31T04:33:06.078Z,83.67
2022-12-31T04:36:28.219Z,84.50
2022-12-31T04:39:49.758Z,85.13
2022-12-31T04:43:11.456Z,85.94
2022-12-31T04:46:34.707Z,86.98
2022-12-31T04:49:57.905Z,87.54
2022-12-31T04:53:19.751Z,87.59
2022-12-31T04:56:41.545Z,87.16
2022-12-31T05:00:03.918Z,87.59
2022-12-31T05:03:27.394Z,86.61
2022-12-31T05:06:50.399Z,86.96
2022-12-31T05:10:12.172Z,86.72
2022-12-31T05:13:33.996Z,86.76
2022-12-31T05:16:56.022Z,87.24
2022-12-31T05:20:17.814Z,87.47
2022-12-31T05:23:40.811Z,87.35
2022-12-31T05:27:02.667Z,87.09
2022-12-31T05:30:24.884Z,87.76
2022-12-31T05:33:46.594Z,86.95
2022-12-31T05:37:08.064Z,87.67
2022-12-31T05:40:32.236Z,87.37
2022-12-31T05:43:54.162Z,87.33
2022-12-31T05:47:16.795Z,87.67
2022-12-31T05:50:38.287Z,87.26
2022-12-31T05:54:00.135Z,87.34
2022-12-31T05:57:23.033Z,87.90
2022-12-31T06:00:46.101Z,88.02
2022-12-31T06:04:07.533Z,88.14
2022-12-31T06:07:29.275Z,88.82
2022-12-31T06:10:50.960Z,88.65
2022-12-31T06:14:14.560Z,88.94
2022-12-31T06:17:36.247Z,89.40
2022-12-31T06:20:59.053Z,89.51
2022-12-31T06:24:20.686Z,89.83
2022-12-31T06:27:42.424Z,90.54
2022-12-31T06:31:07.590Z,91.17
2022-12-31T06:34:29.317Z,90.94
2022-12-31T06:37:52.615Z,91.09
2022-12-31T06:41:15.822Z,91.16
2022-12-31T06:44:37.401Z,91.38
2022-12-31T06:47:59.968Z,90.97
2022-12-31T06:51:22.935Z,91.69
2022-12-31T06:54:45.401Z,91.86
2022-12-31T06:58:07.819Z,91.97
2022-12-31T07:01:38.240Z,92.33
2022-12-31T07:05:10.979Z,92.26
2022-12-31T07:08:42.734Z,91.69
2022-12-31T07:12:13.393Z,92.23
2022-12-31T07:15:48.206Z,92.91
2022-12-31T07:19:21.615Z,92.66
2022-12-31T07:22:45.928Z,92.43
2022-12-31T07:26:17.159Z,92.42
2022-12-31T07:29:52.544Z,92.52
2022-12-31T07:33:26.312Z,91.98
2022-12-31T07:37:02.440Z,91.48
2022-12-31T07:40:37.687Z,92.54
2022-12-31T07:44:08.806Z,92.59
2022-12-31T07:47:30.922Z,92.15
2022-12-31T07:50:54.786Z,92.26
2022-12-31T07:54:16.463Z,91.99
2022-12-31T07:57:44.362Z,91.56
2022-12-31T08:01:06.968Z,91.97
2022-12-31T08:04:33.639Z,92.20
2022-12-31T08:08:01.541Z,92.00
2022-12-31T08:11:33.649Z,92.33
2022-12-31T08:14:57.393Z,92.21
2022-12-31T08:18:19.313Z,92.64
2022-12-31T08:21:50.000Z,92.73
2022-12-31T08:25:23.680Z,92.52
2022-12-31T08:28:58.935Z,92.19
2022-12-31T08:32:25.003Z,92.68
2022-12-31T08:35:57.661Z,92.91
2022-12-31T08:39:32.055Z,92.85
2022-12-31T08:43:07.679Z,93.91
2022-12-31T08:46:34.603Z,94.25
2022-12-31T08:49:58.485Z,94.09
2022-12-31T08:53:20.852Z,94.53
2022-12-31T08:56:50.717Z,94.45
2022-12-31T09:00:15.145Z,94.60
2022-12-31T09:03:54.338Z,94.62
2022-12-31T09:07:22.917Z,94.13
2022-12-31T09:10:52.786Z,94.27
2022-12-31T09:14:24.759Z,94.32
2022-12-31T09:17:48.094Z,94.77
2022-12-31T09:21:11.784Z,94.99
2022-12-31T09:24:35.505Z,94.64
2022-12-31T09:28:09.287Z,94.93
2022-12-31T09:31:37.435Z,94.67
2022-12-31T09:35:07.480Z,94.51
2022-12-31T09:38:33.295Z,93.95
2022-12-31T09:42:19.371Z,94.37
2022-12-31T09:46:01.073Z,94.43
2022-12-31T09:49:55.409Z,93.93
2022-12-31T09:53:32.811Z,94.37
2022-12-31T09:57:15.256Z,94.17
2022-12-31T10:00:42.715Z,93.95
2022-12-31T10:04:46.710Z,94.42
2022-12-31T10:08:17.369Z,94.72
2022-12-31T10:11:58.904Z,94.87
2022-12-31T10:15:41.507Z,94.69
2022-12-31T10:19:32.582Z,94.83
2022-12-31T10:23:27.401Z,94.67
2022-12-31T10:26:58.776Z,95.04
2022-12-31T10:30:23.034Z,94.73
2022-12-31T10:33:56.244Z,95.01
2022-12-31T10:37:19.387Z,95.20
2022-12-31T10:41:07.124Z,95.53
2022-12-31T10:45:03.659Z,95.53
2022-12-31T10:49:03.426Z,95.34
2022-12-31T10:53:13.955Z,95.95
2022-12-31T10:57:07.866Z,95.28
2022-12-31T11:00:31.875Z,95.95
2022-12-31T11:04:34.859Z,95.83
2022-12-31T11:08:12.141Z,95.47
2022-12-31T11:11:46.056Z,95.68
2022-12-31T11:15:39.492Z,96.15
2022-12-31T11:19:08.232Z,96.01
2022-12-31T11:22:44.649Z,95.82
2022-12-31T11:26:19.692Z,95.89
2022-12-31T11:29:56.013Z,96.10
2022-12-31T11:33:34.076Z,96.41
2022-12-31T11:37:19.405Z,95.97
2022-12-31T11:40:44.485Z,95.97
2022-12-31T11:44:19.310Z,96.71
2022-12-31T11:48:28.975Z,96.28
2022-12-31T11:51:53.220Z,95.66
2022-12-31T11:55:27.277Z,96.11
2022-12-31T11:58:52.162Z,96.03
2022-12-31T12:02:26.118Z,95.70
2022-12-31T12:05:47.813Z,95.86
2022-12-31T12:09:15.919Z,96.66
2022-12-31T12:12:40.961Z,96.32
2022-12-31T12:16:07.395Z,95.54
2022-12-31T12:19:33.248Z,96.13
2022-12-31T12:22:58.344Z,95.70
2022-12-31T12:26:28.367Z,95.86
2022-12-31T12:29:50.125Z,95.42
2022-12-31T12:33:18.541Z,94.54
2022-12-31T12:36:48.076Z,95.18
2022-12-31T12:40:21.919Z,94.40
2022-12-31T12:43:43.374Z,93.97
2022-12-31T12:47:07.620Z,94.16
2022-12-31T12:50:40.268Z,93.76
2022-12-31T12:54:12.858Z,93.64
2022-12-31T12:57:45.374Z,93.55
2022-12-31T13:01:17.036Z,93.22
2022-12-31T13:04:52.561Z,93.49
2022-12-31T13:08:28.236Z,92.43
2022-12-31T13:12:07.685Z,92.03
2022-12-31T13:15:35.145Z,90.56
2022-12-31T13:19:04.089Z,89.98
2022-12-31T13:22:31.166Z,89.59
2022-12-31T13:26:05.124Z,88.64
2022-12-31T13:29:31.736Z,88.55
2022-12-31T13:33:00.411Z,87.50
2022-12-31T13:36:24.722Z,86.36
2022-12-31T13:39:48.097Z,85.44
2022-12-31T13:43:17.770Z,85.18
2022-12-31T13:46:47.784Z,83.85
2022-12-31T13:50:18.408Z,83.44
2022-12-31T13:53:48.724Z,81.78
2022-12-31T13:57:19.571Z,81.55
2022-12-31T14:00:45.866Z,81.25
2022-12-31T14:04:16.788Z,80.53
2022-12-31T14:07:45.910Z,84.48
2022-12-31T14:11:19.738Z,85.58
2022-12-31T14:14:50.835Z,88.03
2022-12-31T14:18:20.413Z,89.81
2022-12-31T14:21:48.502Z,91.01
2022-12-31T14:25:21.009Z,92.36
2022-12-31T14:28:48.647Z,91.74
2022-12-31T14:32:55.398Z,91.78
2022-12-31T14:36:37.610Z,91.32
2022-12-31T14:40:10.358Z,90.73
2022-12-31T14:43:53.978Z,90.65
2022-12-31T14:47:28.171Z,90.73
2022-12-31T14:50:50.278Z,90.78
2022-12-31T14:54:29.128Z,90.97
2022-12-31T14:58:26.469Z,90.92
2022-12-31T15:01:34.330Z,90.40
2022-12-31T15:05:12.548Z,91.45
2022-12-31T15:08:50.331Z,91.53
2022-12-31T15:12:43.116Z,91.13
2022-12-31T15:16:23.474Z,91.15
2022-12-31T15:20:16.646Z,91.08
2022-12-31T15:23:42.233Z,90.80
2022-12-31T15:27:06.300Z,91.29
2022-12-31T15:30:36.476Z,91.06
2022-12-31T15:34:02.371Z,90.72
2022-12-31T15:37:33.504Z,90.76
2022-12-31T15:40:55.569Z,91.39
2022-12-31T15:44:24.626Z,91.24
2022-12-31T15:47:49.834Z,91.15
2022-12-31T15:51:18.407Z,90.13
2022-12-31T15:54:43.834Z,91.03
2022-12-31T15:58:08.165Z,90.61
2022-12-31T16:01:33.782Z,89.97
2022-12-31T16:04:56.616Z,89.67
2022-12-31T16:08:22.539Z,89.69
2022-12-31T16:11:44.549Z,88.45
2022-12-31T16:15:07.023Z,88.47
2022-12-31T16:18:38.524Z,87.95
2022-12-31T16:22:04.106Z,87.89
2022-12-31T16:25:31.464Z,87.19
2022-12-31T16:28:55.230Z,87.19
2022-12-31T16:32:19.151Z,87.17
2022-12-31T16:35:40.709Z,86.24
2022-12-31T16:39:23.471Z,86.05
2022-12-31T16:42:47.558Z,85.91
2022-12-31T16:46:12.640Z,85.20
2022-12-31T16:49:38.831Z,84.48
2022-12-31T16:53:04.226Z,84.59
2022-12-31T16:56:33.604Z,84.27
2022-12-31T17:00:01.606Z,83.95
2022-12-31T17:03:25.640Z,83.39
2022-12-31T17:06:48.247Z,82.46
2022-12-31T17:10:19.455Z,82.61
2022-12-31T17:13:41.219Z,81.68
2022-12-31T17:17:07.552Z,80.91
2022-12-31T17:20:30.886Z,80.91
2022-12-31T17:23:56.213Z,80.47
2022-12-31T17:27:18.481Z,80.19
2022-12-31T17:30:41.327Z,79.56
2022-12-31T17:34:33.708Z,79.22
2022-12-31T17:37:55.782Z,78.21
2022-12-31T17:41:24.095Z,77.97
2022-12-31T17:44:45.914Z,77.92
2022-12-31T17:48:07.471Z,77.51
2022-12-31T17:51:30.767Z,76.73
2022-12-31T17:54:52.626Z,76.21
2022-12-31T17:58:19.831Z,76.34
2022-12-31T18:01:43.719Z,74.74
2022-12-31T18:05:14.722Z,74.86
2022-12-31T18:08:37.774Z,74.17
2022-12-31T18:12:01.704Z,74.94
2022-12-31T18:15:25.070Z,74.69
2022-12-31T18:18:46.790Z,74.31
2022-12-31T18:22:08.397Z,73.79
2022-12-31T18:25:31.403Z,73.55
2022-12-31T18:28:53.959Z,72.98
2022-12-31T18:32:21.139Z,72.65
2022-12-31T18:36:08.156Z,72.27
2022-12-31T18:39:24.671Z,72.13
2022-12-31T18:42:47.436Z,71.74
2022-12-31T18:46:12.157Z,71.68
2022-12-31T18:49:33.725Z,71.51
2022-12-31T18:52:55.515Z,71.13
2022-12-31T18:56:19.439Z,70.72
2022-12-31T18:59:42.839Z,70.38
2022-12-31T19:03:05.579Z,70.05
2022-12-31T19:06:27.537Z,70.40
2022-12-31T19:09:53.000Z,70.17
2022-12-31T19:13:19.824Z,69.70
2022-12-31T19:16:43.039Z,69.67
2022-12-31T19:20:05.605Z,69.54
2022-12-31T19:23:27.136Z,69.53
2022-12-31T19:26:48.993Z,69.35
2022-12-31T19:30:20.360Z,69.16
2022-12-31T19:33:44.065Z,69.03
2022-12-31T19:37:05.696Z,68.78
2022-12-31T19:40:30.325Z,69.14
2022-12-31T19:43:51.801Z,69.11
2022-12-31T19:47:14.158Z,68.60
2022-12-31T19:50:36.929Z,68.43
2022-12-31T19:54:00.932Z,68.50
2022-12-31T19:57:22.625Z,68.28
2022-12-31T20:00:47.955Z,68.42
2022-12-31T20:04:12.834Z,68.81
2022-12-31T20:07:36.005Z,68.64
2022-12-31T20:10:59.037Z,68.14
2022-12-31T20:14:20.446Z,68.23
2022-12-31T20:17:42.159Z,68.48
2022-12-31T20:21:03.988Z,68.27
2022-12-31T20:24:27.170Z,68.50
2022-12-31T20:27:48.736Z,67.84
2022-12-31T20:31:12.011Z,67.55
2022-12-31T20:34:33.544Z,68.05
2022-12-31T20:37:55.396Z,67.96
2022-12-31T20:41:19.902Z,67.40
2022-12-31T20:44:41.478Z,67.60
2022-12-31T20:48:02.560Z,67.48
2022-12-31T20:51:25.436Z,67.25
2022-12-31T20:54:47.343Z,67.03
2022-12-31T20:58:10.742Z,66.96
2022-12-31T21:02:11.218Z,67.09
2022-12-31T21:05:14.707Z,66.77
2022-12-31T21:08:37.090Z,66.50
2022-12-31T21:12:15.994Z,66.59
2022-12-31T21:15:38.916Z,66.21
2022-12-31T21:19:01.552Z,66.02
2022-12-31T21:22:24.184Z,65.73
2022-12-31T21:25:46.708Z,65.76
2022-12-31T21:29:08.164Z,65.71
2022-12-31T21:32:31.187Z,65.50
2022-12-31T21:35:54.011Z,64.89
2022-12-31T21:39:16.559Z,64.67
2022-12-31T21:42:38.261Z,64.15
2022-12-31T21:46:04.470Z,63.82
2022-12-31T21:49:27.463Z,63.63
2022-12-31T21:52:49.159Z,63.74
2022-12-31T21:56:11.497Z,63.44
2022-12-31T22:00:09.143Z,63.33
2022-12-31T22:03:32.241Z,62.95
2022-12-31T22:06:55.460Z,62.77
2022-12-31T22:10:17.464Z,62.54
2022-12-31T22:13:39.607Z,62.17
2022-12-31T22:17:00.995Z,62.26
2022-12-31T22:20:27.592Z,62.19
2022-12-31T22:23:53.236Z,61.93
2022-12-31T22:27:28.610Z,61.81
2022-12-31T22:30:51.399Z,61.44
2022-12-31T22:34:12.899Z,61.71
2022-12-31T22:41:19.590Z,61.16
2022-12-31T22:44:41.542Z,60.69
2022-12-31T22:48:02.799Z,60.61
2022-12-31T22:51:24.571Z,60.46
2022-12-31T22:54:46.182Z,60.84
2022-12-31T22:58:09.195Z,60.26
2022-12-31T23:01:31.006Z,60.43
2022-12-31T23:04:52.943Z,60.04
2022-12-31T23:08:34.500Z,60.00
2022-12-31T23:11:56.183Z,59.77
2022-12-31T23:15:36.459Z,59.00
2022-12-31T23:19:15.312Z,59.83
2022-12-31T23:22:54.079Z,59.13
2022-12-31T23:26:15.607Z,59.16
2022-12-31T23:29:45.655Z,58.98
2022-12-31T23:33:15.147Z,58.99
2022-12-31T23:36:36.847Z,58.63
2022-12-31T23:39:58.830Z,58.27
2022-12-31T23:43:23.166Z,58.71
2022-12-31T23:46:45.525Z,57.84
2022-12-31T23:50:09.771Z,58.48
2022-12-31T23:53:31.417Z,57.73
2022-12-31T23:56:53.241Z,57.57
